sensor_id;sensor_type;location;lat;lon;timestamp;pressure;altitude;pressure_sealevel;temperature;humidity
37648;BME280;23490;53.656;10.076;2023-02-15T00:01:53;99688.56;;;-145.95;100.00
37648;BME280;23490;53.656;10.076;2023-02-15T00:04:22;99700.94;;;-145.95;100.00
37648;BME280;23490;53.656;10.076;2023-02-15T00:06:48;99674.09;;;-145.95;100.00
37648;BME280;23490;53.656;10.076;2023-02-15T00:09:14;99694.75;;;-145.95;100.00
37648;BME280;23490;53.656;10.076;2023-02-15T00:11:39;99692.69;;;-145.95;100.00
37648;BME280;23490;53.656;10.076;2023-02-15T00:14:10;99690.63;;;-145.95;100.00
37648;BME280;23490;53.656;10.076;2023-02-15T00:16:37;99692.69;;;-145.95;100.00
37648;BME280;23490;53.656;10.076;2023-02-15T00:19:03;99719.53;;;-145.95;100.00
37648;BME280;23490;53.656;10.076;2023-02-15T00:21:30;99678.22;;;-145.95;100.00
37648;BME280;23490;53.656;10.076;2023-02-15T00:23:57;99684.44;;;-145.95;100.00
37648;BME280;23490;53.656;10.076;2023-02-15T00:26:23;99740.19;;;-145.95;100.00
37648;BME280;23490;53.656;10.076;2023-02-15T00:28:49;99657.56;;;-145.95;100.00
37648;BME280;23490;53.656;10.076;2023-02-15T00:31:14;99669.97;;;-145.95;100.00
37648;BME280;23490;53.656;10.076;2023-02-15T00:33:39;99723.66;;;-145.95;100.00
37648;BME280;23490;53.656;10.076;2023-02-15T00:36:07;99694.75;;;-145.95;100.00
37648;BME280;23490;53.656;10.076;2023-02-15T00:38:34;99698.88;;;-145.95;100.00
37648;BME280;23490;53.656;10.076;2023-02-15T00:41:01;99680.31;;;-145.95;100.00
37648;BME280;23490;53.656;10.076;2023-02-15T00:43:29;99705.09;;;-145.95;100.00
37648;BME280;23490;53.656;10.076;2023-02-15T00:45:55;99686.50;;;-145.95;100.00
37648;BME280;23490;53.656;10.076;2023-02-15T00:48:21;99719.53;;;-145.95;100.00
37648;BME280;23490;53.656;10.076;2023-02-15T00:50:52;99657.56;;;-145.95;100.00
37648;BME280;23490;53.656;10.076;2023-02-15T00:53:18;99707.16;;;-145.95;100.00
37648;BME280;23490;53.656;10.076;2023-02-15T00:55:43;99674.09;;;-145.95;100.00
37648;BME280;23490;53.656;10.076;2023-02-15T00:58:10;99669.97;;;-145.95;100.00
37648;BME280;23490;53.656;10.076;2023-02-15T01:00:37;99653.44;;;-145.95;100.00
37648;BME280;23490;53.656;10.076;2023-02-15T01:03:04;99690.63;;;-145.95;100.00
37648;BME280;23490;53.656;10.076;2023-02-15T01:05:30;99678.22;;;-145.95;100.00
37648;BME280;23490;53.656;10.076;2023-02-15T01:07:56;99663.78;;;-145.95;100.00
37648;BME280;23490;53.656;10.076;2023-02-15T01:10:22;99665.84;;;-145.95;100.00
37648;BME280;23490;53.656;10.076;2023-02-15T01:12:47;99690.63;;;-145.95;100.00
37648;BME280;23490;53.656;10.076;2023-02-15T01:15:13;99678.22;;;-145.95;100.00
37648;BME280;23490;53.656;10.076;2023-02-15T01:17:38;99684.44;;;-145.95;100.00
37648;BME280;23490;53.656;10.076;2023-02-15T01:20:05;99688.56;;;-145.95;100.00
37648;BME280;23490;53.656;10.076;2023-02-15T01:22:31;99698.88;;;-145.95;100.00
37648;BME280;23490;53.656;10.076;2023-02-15T01:24:57;99665.84;;;-145.95;100.00
37648;BME280;23490;53.656;10.076;2023-02-15T01:27:22;99636.94;;;-145.95;100.00
37648;BME280;23490;53.656;10.076;2023-02-15T01:29:47;99653.44;;;-145.95;100.00
37648;BME280;23490;53.656;10.076;2023-02-15T01:32:13;99674.09;;;-145.95;100.00
37648;BME280;23490;53.656;10.076;2023-02-15T01:34:38;99630.72;;;-145.95;100.00
37648;BME280;23490;53.656;10.076;2023-02-15T01:37:03;99682.38;;;-145.95;100.00
37648;BME280;23490;53.656;10.076;2023-02-15T01:39:29;99665.84;;;-145.95;100.00
37648;BME280;23490;53.656;10.076;2023-02-15T01:41:54;99667.91;;;-145.95;100.00
37648;BME280;23490;53.656;10.076;2023-02-15T01:47:39;99661.72;;;-145.95;100.00
37648;BME280;23490;53.656;10.076;2023-02-15T01:52:45;99645.19;;;-145.95;100.00
37648;BME280;23490;53.656;10.076;2023-02-15T01:55:14;99649.31;;;-145.95;100.00
37648;BME280;23490;53.656;10.076;2023-02-15T01:57:41;99667.91;;;-145.95;100.00
37648;BME280;23490;53.656;10.076;2023-02-15T02:00:08;99686.50;;;-145.95;100.00
37648;BME280;23490;53.656;10.076;2023-02-15T02:02:34;99678.22;;;-145.95;100.00
37648;BME280;23490;53.656;10.076;2023-02-15T02:05:01;99678.22;;;-145.95;100.00
37648;BME280;23490;53.656;10.076;2023-02-15T02:07:44;99653.44;;;-145.95;100.00
37648;BME280;23490;53.656;10.076;2023-02-15T02:10:15;99603.88;;;-145.95;100.00
37648;BME280;23490;53.656;10.076;2023-02-15T02:12:41;99636.94;;;-145.95;100.00
37648;BME280;23490;53.656;10.076;2023-02-15T02:15:07;99661.72;;;-145.95;100.00
37648;BME280;23490;53.656;10.076;2023-02-15T02:23:15;99723.66;;;-145.95;100.00
37648;BME280;23490;53.656;10.076;2023-02-15T02:26:42;99686.50;;;-145.95;100.00
37648;BME280;23490;53.656;10.076;2023-02-15T02:32:13;99669.97;;;-145.95;100.00
37648;BME280;23490;53.656;10.076;2023-02-15T02:37:31;99669.97;;;-145.95;100.00
37648;BME280;23490;53.656;10.076;2023-02-15T02:40:20;99661.72;;;-145.95;100.00
37648;BME280;23490;53.656;10.076;2023-02-15T02:43:01;99678.22;;;-145.95;100.00
37648;BME280;23490;53.656;10.076;2023-02-15T02:45:40;99723.66;;;-145.95;100.00
37648;BME280;23490;53.656;10.076;2023-02-15T02:48:17;99698.88;;;-145.95;100.00
37648;BME280;23490;53.656;10.076;2023-02-15T02:50:44;99694.75;;;-145.95;100.00
37648;BME280;23490;53.656;10.076;2023-02-15T02:53:10;99669.97;;;-145.95;100.00
37648;BME280;23490;53.656;10.076;2023-02-15T02:55:44;99669.97;;;-145.95;100.00
37648;BME280;23490;53.656;10.076;2023-02-15T02:58:21;99674.09;;;-145.95;100.00
37648;BME280;23490;53.656;10.076;2023-02-15T03:00:53;99663.78;;;-145.95;100.00
37648;BME280;23490;53.656;10.076;2023-02-15T03:03:30;99634.84;;;-145.95;100.00
37648;BME280;23490;53.656;10.076;2023-02-15T03:06:00;99661.72;;;-145.95;100.00
37648;BME280;23490;53.656;10.076;2023-02-15T03:08:35;99665.84;;;-145.95;100.00
37648;BME280;23490;53.656;10.076;2023-02-15T03:11:03;99678.22;;;-145.95;100.00
37648;BME280;23490;53.656;10.076;2023-02-15T03:13:28;99686.50;;;-145.95;100.00
37648;BME280;23490;53.656;10.076;2023-02-15T03:15:55;99676.16;;;-145.95;100.00
37648;BME280;23490;53.656;10.076;2023-02-15T03:18:44;99690.63;;;-145.95;100.00
37648;BME280;23490;53.656;10.076;2023-02-15T03:21:20;99672.03;;;-145.95;100.00
37648;BME280;23490;53.656;10.076;2023-02-15T03:23:52;99665.84;;;-145.95;100.00
37648;BME280;23490;53.656;10.076;2023-02-15T03:26:20;99657.56;;;-145.95;100.00
37648;BME280;23490;53.656;10.076;2023-02-15T03:28:49;99680.31;;;-145.95;100.00
37648;BME280;23490;53.656;10.076;2023-02-15T03:31:17;99674.09;;;-145.95;100.00
37648;BME280;23490;53.656;10.076;2023-02-15T03:34:00;99632.78;;;-145.95;100.00
37648;BME280;23490;53.656;10.076;2023-02-15T03:36:44;99709.22;;;-145.95;100.00
37648;BME280;23490;53.656;10.076;2023-02-15T03:42:13;99653.44;;;-145.95;100.00
37648;BME280;23490;53.656;10.076;2023-02-15T03:44:51;99669.97;;;-145.95;100.00
37648;BME280;23490;53.656;10.076;2023-02-15T03:47:21;99674.09;;;-145.95;100.00
37648;BME280;23490;53.656;10.076;2023-02-15T03:49:56;99634.84;;;-145.95;100.00
37648;BME280;23490;53.656;10.076;2023-02-15T03:52:25;99698.88;;;-145.95;100.00
37648;BME280;23490;53.656;10.076;2023-02-15T03:54:53;99674.09;;;-145.95;100.00
37648;BME280;23490;53.656;10.076;2023-02-15T03:57:22;99686.50;;;-145.95;100.00
37648;BME280;23490;53.656;10.076;2023-02-15T04:00:22;99651.38;;;-145.95;100.00
37648;BME280;23490;53.656;10.076;2023-02-15T04:03:39;99674.09;;;-145.95;100.00
37648;BME280;23490;53.656;10.076;2023-02-15T04:06:07;99686.50;;;-145.95;100.00
37648;BME280;23490;53.656;10.076;2023-02-15T04:08:33;99715.41;;;-145.95;100.00
37648;BME280;23490;53.656;10.076;2023-02-15T04:11:17;99684.44;;;-145.95;100.00
37648;BME280;23490;53.656;10.076;2023-02-15T04:13:42;99690.63;;;-145.95;100.00
37648;BME280;23490;53.656;10.076;2023-02-15T04:16:08;99674.09;;;-145.95;100.00
37648;BME280;23490;53.656;10.076;2023-02-15T04:18:42;99717.47;;;-145.95;100.00
37648;BME280;23490;53.656;10.076;2023-02-15T04:21:28;99669.97;;;-145.95;100.00
37648;BME280;23490;53.656;10.076;2023-02-15T04:24:13;99682.38;;;-145.95;100.00
37648;BME280;23490;53.656;10.076;2023-02-15T04:26:57;99694.75;;;-145.95;100.00
37648;BME280;23490;53.656;10.076;2023-02-15T04:29:23;99682.38;;;-145.95;100.00
37648;BME280;23490;53.656;10.076;2023-02-15T04:31:50;99674.09;;;-145.95;100.00
37648;BME280;23490;53.656;10.076;2023-02-15T04:34:16;99665.84;;;-145.95;100.00
37648;BME280;23490;53.656;10.076;2023-02-15T04:36:42;99653.44;;;-145.95;100.00
37648;BME280;23490;53.656;10.076;2023-02-15T04:39:08;99698.88;;;-145.95;100.00
37648;BME280;23490;53.656;10.076;2023-02-15T04:41:34;99719.53;;;-145.95;100.00
37648;BME280;23490;53.656;10.076;2023-02-15T04:44:00;99694.75;;;-145.95;100.00
37648;BME280;23490;53.656;10.076;2023-02-15T04:46:27;99682.38;;;-145.95;100.00
37648;BME280;23490;53.656;10.076;2023-02-15T04:48:53;99694.75;;;-145.95;100.00
37648;BME280;23490;53.656;10.076;2023-02-15T04:51:19;99690.63;;;-145.95;100.00
37648;BME280;23490;53.656;10.076;2023-02-15T04:53:45;99669.97;;;-145.95;100.00
37648;BME280;23490;53.656;10.076;2023-02-15T04:56:10;99665.84;;;-145.95;100.00
37648;BME280;23490;53.656;10.076;2023-02-15T04:58:35;99678.22;;;-145.95;100.00
37648;BME280;23490;53.656;10.076;2023-02-15T05:01:02;99723.66;;;-145.95;100.00
37648;BME280;23490;53.656;10.076;2023-02-15T05:03:28;99719.53;;;-145.95;100.00
37648;BME280;23490;53.656;10.076;2023-02-15T05:05:54;99709.22;;;-145.95;100.00
37648;BME280;23490;53.656;10.076;2023-02-15T05:08:19;99698.88;;;-145.95;100.00
37648;BME280;23490;53.656;10.076;2023-02-15T05:10:47;99678.22;;;-145.95;100.00
37648;BME280;23490;53.656;10.076;2023-02-15T05:13:13;99711.28;;;-145.95;100.00
37648;BME280;23490;53.656;10.076;2023-02-15T05:15:38;99696.81;;;-145.95;100.00
37648;BME280;23490;53.656;10.076;2023-02-15T05:18:04;99661.72;;;-145.95;100.00
37648;BME280;23490;53.656;10.076;2023-02-15T05:20:31;99684.44;;;-145.95;100.00
37648;BME280;23490;53.656;10.076;2023-02-15T05:22:56;99694.75;;;-145.95;100.00
37648;BME280;23490;53.656;10.076;2023-02-15T05:25:22;99698.88;;;-145.95;100.00
37648;BME280;23490;53.656;10.076;2023-02-15T05:28:11;99698.88;;;-145.95;100.00
37648;BME280;23490;53.656;10.076;2023-02-15T05:30:50;99707.16;;;-145.95;100.00
37648;BME280;23490;53.656;10.076;2023-02-15T05:33:16;99682.38;;;-145.95;100.00
37648;BME280;23490;53.656;10.076;2023-02-15T05:35:41;99725.75;;;-145.95;100.00
37648;BME280;23490;53.656;10.076;2023-02-15T05:38:07;99740.19;;;-145.95;100.00
37648;BME280;23490;53.656;10.076;2023-02-15T05:40:32;99719.53;;;-145.95;100.00
37648;BME280;23490;53.656;10.076;2023-02-15T05:42:58;99669.97;;;-145.95;100.00
37648;BME280;23490;53.656;10.076;2023-02-15T05:45:23;99698.88;;;-145.95;100.00
37648;BME280;23490;53.656;10.076;2023-02-15T05:47:49;99740.19;;;-145.95;100.00
37648;BME280;23490;53.656;10.076;2023-02-15T05:50:15;99744.31;;;-145.95;100.00
37648;BME280;23490;53.656;10.076;2023-02-15T05:52:40;99711.28;;;-145.95;100.00
37648;BME280;23490;53.656;10.076;2023-02-15T05:55:06;99736.06;;;-145.95;100.00
37648;BME280;23490;53.656;10.076;2023-02-15T05:57:34;99711.28;;;-145.95;100.00
37648;BME280;23490;53.656;10.076;2023-02-15T06:00:00;99740.19;;;-145.95;100.00
37648;BME280;23490;53.656;10.076;2023-02-15T06:02:26;99752.59;;;-145.95;100.00
37648;BME280;23490;53.656;10.076;2023-02-15T06:04:51;99729.88;;;-145.95;100.00
37648;BME280;23490;53.656;10.076;2023-02-15T06:07:17;99752.59;;;-145.95;100.00
37648;BME280;23490;53.656;10.076;2023-02-15T06:09:42;99738.13;;;-145.95;100.00
37648;BME280;23490;53.656;10.076;2023-02-15T06:12:07;99725.75;;;-145.95;100.00
37648;BME280;23490;53.656;10.076;2023-02-15T06:14:33;99715.41;;;-145.95;100.00
37648;BME280;23490;53.656;10.076;2023-02-15T06:16:58;99729.88;;;-145.95;100.00
37648;BME280;23490;53.656;10.076;2023-02-15T06:19:23;99748.44;;;-145.95;100.00
37648;BME280;23490;53.656;10.076;2023-02-15T06:21:49;99764.97;;;-145.95;100.00
37648;BME280;23490;53.656;10.076;2023-02-15T06:24:14;99769.13;;;-145.95;100.00
37648;BME280;23490;53.656;10.076;2023-02-15T06:26:40;99758.78;;;-145.95;100.00
37648;BME280;23490;53.656;10.076;2023-02-15T06:29:05;99760.84;;;-145.95;100.00
37648;BME280;23490;53.656;10.076;2023-02-15T06:31:31;99736.06;;;-145.95;100.00
37648;BME280;23490;53.656;10.076;2023-02-15T06:33:57;99740.19;;;-145.95;100.00
37648;BME280;23490;53.656;10.076;2023-02-15T06:36:27;99707.16;;;-145.95;100.00
37648;BME280;23490;53.656;10.076;2023-02-15T06:38:53;99707.16;;;-145.95;100.00
37648;BME280;23490;53.656;10.076;2023-02-15T06:41:18;99748.44;;;-145.95;100.00
37648;BME280;23490;53.656;10.076;2023-02-15T06:43:43;99756.72;;;-145.95;100.00
37648;BME280;23490;53.656;10.076;2023-02-15T06:46:09;99760.84;;;-145.95;100.00
37648;BME280;23490;53.656;10.076;2023-02-15T06:48:34;99783.56;;;-145.95;100.00
37648;BME280;23490;53.656;10.076;2023-02-15T06:50:59;99775.31;;;-145.95;100.00
37648;BME280;23490;53.656;10.076;2023-02-15T06:53:25;99781.50;;;-145.95;100.00
37648;BME280;23490;53.656;10.076;2023-02-15T06:55:50;99769.13;;;-145.95;100.00
37648;BME280;23490;53.656;10.076;2023-02-15T06:58:15;99760.84;;;-145.95;100.00
37648;BME280;23490;53.656;10.076;2023-02-15T07:00:41;99769.13;;;-145.95;100.00
37648;BME280;23490;53.656;10.076;2023-02-15T07:03:06;99727.81;;;-145.95;100.00
37648;BME280;23490;53.656;10.076;2023-02-15T07:05:33;99789.75;;;-145.95;100.00
37648;BME280;23490;53.656;10.076;2023-02-15T07:07:59;99789.75;;;-145.95;100.00
37648;BME280;23490;53.656;10.076;2023-02-15T07:10:26;99752.59;;;-145.95;100.00
37648;BME280;23490;53.656;10.076;2023-02-15T07:12:51;99775.31;;;-145.95;100.00
37648;BME280;23490;53.656;10.076;2023-02-15T07:15:18;99777.38;;;-145.95;100.00
37648;BME280;23490;53.656;10.076;2023-02-15T07:17:45;99731.94;;;-145.95;100.00
37648;BME280;23490;53.656;10.076;2023-02-15T07:20:21;99808.34;;;-145.95;100.00
37648;BME280;23490;53.656;10.076;2023-02-15T07:22:47;99781.50;;;-145.95;100.00
37648;BME280;23490;53.656;10.076;2023-02-15T07:25:13;99785.63;;;-145.95;100.00
37648;BME280;23490;53.656;10.076;2023-02-15T07:27:39;99764.97;;;-145.95;100.00
37648;BME280;23490;53.656;10.076;2023-02-15T07:30:07;99814.56;;;-145.95;100.00
37648;BME280;23490;53.656;10.076;2023-02-15T07:32:32;99752.59;;;-145.95;100.00
37648;BME280;23490;53.656;10.076;2023-02-15T07:34:58;99773.25;;;-145.95;100.00
37648;BME280;23490;53.656;10.076;2023-02-15T07:37:24;99748.44;;;-145.95;100.00
37648;BME280;23490;53.656;10.076;2023-02-15T07:39:49;99777.38;;;-145.95;100.00
37648;BME280;23490;53.656;10.076;2023-02-15T07:42:15;99769.13;;;-145.95;100.00
37648;BME280;23490;53.656;10.076;2023-02-15T07:44:40;99744.31;;;-145.95;100.00
37648;BME280;23490;53.656;10.076;2023-02-15T07:47:06;99740.19;;;-145.95;100.00
37648;BME280;23490;53.656;10.076;2023-02-15T07:49:31;99752.59;;;-145.95;100.00
37648;BME280;23490;53.656;10.076;2023-02-15T07:51:57;99791.81;;;-145.95;100.00
37648;BME280;23490;53.656;10.076;2023-02-15T07:54:22;99812.47;;;-145.95;100.00
37648;BME280;23490;53.656;10.076;2023-02-15T07:56:47;99775.31;;;-145.95;100.00
37648;BME280;23490;53.656;10.076;2023-02-15T07:59:13;99785.63;;;-145.95;100.00
37648;BME280;23490;53.656;10.076;2023-02-15T08:01:39;99773.25;;;-145.95;100.00
37648;BME280;23490;53.656;10.076;2023-02-15T08:04:06;99767.03;;;-145.95;100.00
37648;BME280;23490;53.656;10.076;2023-02-15T08:06:33;99760.84;;;-145.95;100.00
37648;BME280;23490;53.656;10.076;2023-02-15T08:09:00;99814.56;;;-145.95;100.00
37648;BME280;23490;53.656;10.076;2023-02-15T08:11:30;99798.03;;;-145.95;100.00
37648;BME280;23490;53.656;10.076;2023-02-15T08:14:08;99816.63;;;-145.95;100.00
37648;BME280;23490;53.656;10.076;2023-02-15T08:19:13;99777.38;;;-145.95;100.00
37648;BME280;23490;53.656;10.076;2023-02-15T08:21:44;99787.69;;;-145.95;100.00
37648;BME280;23490;53.656;10.076;2023-02-15T08:24:11;99789.75;;;-145.95;100.00
37648;BME280;23490;53.656;10.076;2023-02-15T08:26:38;99781.50;;;-145.95;100.00
37648;BME280;23490;53.656;10.076;2023-02-15T08:29:05;99760.84;;;-145.95;100.00
37648;BME280;23490;53.656;10.076;2023-02-15T08:31:32;99831.06;;;-145.95;100.00
37648;BME280;23490;53.656;10.076;2023-02-15T08:33:58;99810.41;;;-145.95;100.00
37648;BME280;23490;53.656;10.076;2023-02-15T08:36:28;99785.63;;;-145.95;100.00
37648;BME280;23490;53.656;10.076;2023-02-15T08:38:57;99798.03;;;-145.95;100.00
37648;BME280;23490;53.656;10.076;2023-02-15T08:41:25;99769.13;;;-145.95;100.00
37648;BME280;23490;53.656;10.076;2023-02-15T08:43:53;99818.69;;;-145.95;100.00
37648;BME280;23490;53.656;10.076;2023-02-15T08:46:20;99814.56;;;-145.95;100.00
37648;BME280;23490;53.656;10.076;2023-02-15T08:48:46;99835.19;;;-145.95;100.00
37648;BME280;23490;53.656;10.076;2023-02-15T08:51:14;99802.16;;;-145.95;100.00
37648;BME280;23490;53.656;10.076;2023-02-15T08:53:42;99758.78;;;-145.95;100.00
37648;BME280;23490;53.656;10.076;2023-02-15T08:56:09;99779.44;;;-145.95;100.00
37648;BME280;23490;53.656;10.076;2023-02-15T08:58:35;99769.13;;;-145.95;100.00
37648;BME280;23490;53.656;10.076;2023-02-15T09:01:00;99744.31;;;-145.95;100.00
37648;BME280;23490;53.656;10.076;2023-02-15T09:03:29;99721.59;;;-145.95;100.00
37648;BME280;23490;53.656;10.076;2023-02-15T09:05:59;99756.72;;;-145.95;100.00
37648;BME280;23490;53.656;10.076;2023-02-15T09:08:25;99758.78;;;-145.95;100.00
37648;BME280;23490;53.656;10.076;2023-02-15T09:10:50;99800.09;;;-145.95;100.00
37648;BME280;23490;53.656;10.076;2023-02-15T09:13:16;99742.25;;;-145.95;100.00
37648;BME280;23490;53.656;10.076;2023-02-15T09:15:41;99764.97;;;-145.95;100.00
37648;BME280;23490;53.656;10.076;2023-02-15T09:18:07;99742.25;;;-145.95;100.00
37648;BME280;23490;53.656;10.076;2023-02-15T09:20:36;99771.19;;;-145.95;100.00
37648;BME280;23490;53.656;10.076;2023-02-15T09:23:02;99769.13;;;-145.95;100.00
37648;BME280;23490;53.656;10.076;2023-02-15T09:25:27;99727.81;;;-145.95;100.00
37648;BME280;23490;53.656;10.076;2023-02-15T09:27:53;99777.38;;;-145.95;100.00
37648;BME280;23490;53.656;10.076;2023-02-15T09:30:18;99760.84;;;-145.95;100.00
37648;BME280;23490;53.656;10.076;2023-02-15T09:32:44;99781.50;;;-145.95;100.00
37648;BME280;23490;53.656;10.076;2023-02-15T09:35:11;99723.66;;;-145.95;100.00
37648;BME280;23490;53.656;10.076;2023-02-15T09:37:37;99719.53;;;-145.95;100.00
37648;BME280;23490;53.656;10.076;2023-02-15T09:40:03;99736.06;;;-145.95;100.00
37648;BME280;23490;53.656;10.076;2023-02-15T09:45:07;99764.97;;;-145.95;100.00
37648;BME280;23490;53.656;10.076;2023-02-15T09:48:02;99740.19;;;-145.95;100.00
37648;BME280;23490;53.656;10.076;2023-02-15T09:50:49;99752.59;;;-145.95;100.00
37648;BME280;23490;53.656;10.076;2023-02-15T09:53:26;99707.16;;;-145.95;100.00
37648;BME280;23490;53.656;10.076;2023-02-15T09:56:06;99715.41;;;-145.95;100.00
37648;BME280;23490;53.656;10.076;2023-02-15T10:01:22;99680.31;;;-145.95;100.00
37648;BME280;23490;53.656;10.076;2023-02-15T10:07:10;99686.50;;;-145.95;100.00
37648;BME280;23490;53.656;10.076;2023-02-15T10:15:23;99721.59;;;-145.95;100.00
37648;BME280;23490;53.656;10.076;2023-02-15T10:23:41;99777.38;;;-145.95;100.00
37648;BME280;23490;53.656;10.076;2023-02-15T10:26:22;99657.56;;;-145.95;100.00
37648;BME280;23490;53.656;10.076;2023-02-15T10:28:56;99698.88;;;-145.95;100.00
37648;BME280;23490;53.656;10.076;2023-02-15T10:31:28;99694.75;;;-145.95;100.00
37648;BME280;23490;53.656;10.076;2023-02-15T10:34:18;99703.00;;;-145.95;100.00
37648;BME280;23490;53.656;10.076;2023-02-15T10:42:11;99715.41;;;-145.95;100.00
37648;BME280;23490;53.656;10.076;2023-02-15T10:45:19;99723.66;;;-145.95;100.00
37648;BME280;23490;53.656;10.076;2023-02-15T10:48:01;99705.09;;;-145.95;100.00
37648;BME280;23490;53.656;10.076;2023-02-15T10:51:00;99698.88;;;-145.95;100.00
37648;BME280;23490;53.656;10.076;2023-02-15T10:56:15;99698.88;;;-145.95;100.00
37648;BME280;23490;53.656;10.076;2023-02-15T11:04:40;99686.50;;;-145.95;100.00
37648;BME280;23490;53.656;10.076;2023-02-15T11:07:24;99692.69;;;-145.95;100.00
37648;BME280;23490;53.656;10.076;2023-02-15T11:09:56;99698.88;;;-145.95;100.00
37648;BME280;23490;53.656;10.076;2023-02-15T11:12:28;99703.00;;;-145.95;100.00
37648;BME280;23490;53.656;10.076;2023-02-15T11:15:30;99723.66;;;-145.95;100.00
37648;BME280;23490;53.656;10.076;2023-02-15T11:18:02;99715.41;;;-145.95;100.00
37648;BME280;23490;53.656;10.076;2023-02-15T11:20:37;99740.19;;;-145.95;100.00
37648;BME280;23490;53.656;10.076;2023-02-15T11:23:13;99682.38;;;-145.95;100.00
37648;BME280;23490;53.656;10.076;2023-02-15T11:25:53;99669.97;;;-145.95;100.00
37648;BME280;23490;53.656;10.076;2023-02-15T11:28:37;99657.56;;;-145.95;100.00
37648;BME280;23490;53.656;10.076;2023-02-15T11:31:16;99628.66;;;-145.95;100.00
37648;BME280;23490;53.656;10.076;2023-02-15T11:34:05;99641.06;;;-145.95;100.00
37648;BME280;23490;53.656;10.076;2023-02-15T11:36:36;99649.31;;;-145.95;100.00
37648;BME280;23490;53.656;10.076;2023-02-15T11:39:09;99620.41;;;-145.95;100.00
37648;BME280;23490;53.656;10.076;2023-02-15T11:41:38;99639.00;;;-145.95;100.00
37648;BME280;23490;53.656;10.076;2023-02-15T11:44:29;99645.19;;;-145.95;100.00
37648;BME280;23490;53.656;10.076;2023-02-15T11:46:58;99628.66;;;-145.95;100.00
37648;BME280;23490;53.656;10.076;2023-02-15T11:49:26;99628.66;;;-145.95;100.00
37648;BME280;23490;53.656;10.076;2023-02-15T11:51:53;99649.31;;;-145.95;100.00
37648;BME280;23490;53.656;10.076;2023-02-15T11:54:29;99645.19;;;-145.95;100.00
37648;BME280;23490;53.656;10.076;2023-02-15T11:57:01;99634.84;;;-145.95;100.00
37648;BME280;23490;53.656;10.076;2023-02-15T11:59:32;99591.50;;;-145.95;100.00
37648;BME280;23490;53.656;10.076;2023-02-15T12:02:00;99591.50;;;-145.95;100.00
37648;BME280;23490;53.656;10.076;2023-02-15T12:04:39;99643.13;;;-145.95;100.00
37648;BME280;23490;53.656;10.076;2023-02-15T12:07:25;99624.53;;;-145.95;100.00
37648;BME280;23490;53.656;10.076;2023-02-15T12:10:04;99577.03;;;-145.95;100.00
37648;BME280;23490;53.656;10.076;2023-02-15T12:12:35;99616.28;;;-145.95;100.00
37648;BME280;23490;53.656;10.076;2023-02-15T12:15:04;99560.50;;;-145.95;100.00
37648;BME280;23490;53.656;10.076;2023-02-15T12:17:33;99504.75;;;-145.95;100.00
37648;BME280;23490;53.656;10.076;2023-02-15T12:20:20;99473.75;;;-145.95;100.00
37648;BME280;23490;53.656;10.076;2023-02-15T12:22:51;99463.44;;;-145.95;100.00
37648;BME280;23490;53.656;10.076;2023-02-15T12:25:34;99484.09;;;-145.95;100.00
37648;BME280;23490;53.656;10.076;2023-02-15T12:28:01;99409.75;;;-145.95;99.16
37648;BME280;23490;53.656;10.076;2023-02-15T12:30:37;99409.75;;;-145.95;98.55
37648;BME280;23490;53.656;10.076;2023-02-15T12:33:05;99471.69;;;-145.95;100.00
37648;BME280;23490;53.656;10.076;2023-02-15T12:35:38;99459.31;;;-145.95;98.89
37648;BME280;23490;53.656;10.076;2023-02-15T12:40:36;99387.03;;;-145.95;96.68
37648;BME280;23490;53.656;10.076;2023-02-15T12:43:03;99401.50;;;-145.95;95.96
37648;BME280;23490;53.656;10.076;2023-02-15T12:45:36;99434.53;;;-145.95;97.61
37648;BME280;23490;53.656;10.076;2023-02-15T12:48:19;99405.63;;;-145.95;98.74
37648;BME280;23490;53.656;10.076;2023-02-15T12:50:47;99399.41;;;-145.95;100.00
37648;BME280;23490;53.656;10.076;2023-02-15T12:53:17;99422.13;;;-145.95;99.03
37648;BME280;23490;53.656;10.076;2023-02-15T12:55:59;99451.06;;;-145.95;100.00
37648;BME280;23490;53.656;10.076;2023-02-15T12:58:36;99440.72;;;-145.95;100.00
37648;BME280;23490;53.656;10.076;2023-02-15T13:01:11;99376.69;;;-145.95;100.00
37648;BME280;23490;53.656;10.076;2023-02-15T13:03:58;99465.50;;;-145.95;99.98
37648;BME280;23490;53.656;10.076;2023-02-15T13:06:28;99415.94;;;-145.95;100.00
37648;BME280;23490;53.656;10.076;2023-02-15T13:08:55;99405.63;;;-145.95;99.22
37648;BME280;23490;53.656;10.076;2023-02-15T13:11:28;99426.28;;;-145.95;98.99
37648;BME280;23490;53.656;10.076;2023-02-15T13:14:04;99422.13;;;-145.95;97.33
37648;BME280;23490;53.656;10.076;2023-02-15T13:16:43;99442.78;;;-145.95;99.16
37648;BME280;23490;53.656;10.076;2023-02-15T13:19:15;99438.66;;;-145.95;99.48
37648;BME280;23490;53.656;10.076;2023-02-15T13:21:45;99426.28;;;-145.95;98.97
37648;BME280;23490;53.656;10.076;2023-02-15T13:24:29;99434.53;;;-145.95;100.00
37648;BME280;23490;53.656;10.076;2023-02-15T13:26:58;99430.41;;;-145.95;98.77
37648;BME280;23490;53.656;10.076;2023-02-15T13:29:27;99415.94;;;-145.95;97.33
37648;BME280;23490;53.656;10.076;2023-02-15T13:31:55;99376.69;;;-145.95;97.20
37648;BME280;23490;53.656;10.076;2023-02-15T13:34:34;99351.91;;;-145.95;96.99
37648;BME280;23490;53.656;10.076;2023-02-15T13:39:44;99364.31;;;-145.95;94.54